Pagrindinis puslapis
METAR-TAF:

METAR-TAF

Oro uostai :

Mitiga International Airport

Tripolis, Libija

platuma: 32-54N, ilguma: 13-17E, Aukštis: 11 m

METAR: trūkstamas

Laikas: 18:04 (16:04 UTC)

Prognozė

Ataskaita buvo paskelbta 5 valandos ir 4 minutes, ne 11:00 UTC
Prognozė galioja nuo 25 metu 12 UTC su 26 metu 12 UTC
Vėjas 12 kt iš Vakarų/Šiaurės Vakarų
Matomumas: 6000 m
Išsisklaidę debesys ne aukštis 3000 ft

TAF: HLLM 251100Z 2512/2612 30012KT 6000 SCT030

Orai ataskaitas ir orų prognozės (METAR, TAF).

turimą stotys yra geltonos ir raudonos taškus žemėlapyje.

Perkelti pele per norėdami pamatyti stoties vardą.

Tada spustelėkite, norėdami matyti oro stebėjimo ir prognozės.

Norėdami pakeisti žemėlapį: spustelėkite ant žalios mygtukų su juodo kryžiaus žemyn,; žalią mygtuką su brūkšneliu, jei norite nutolinti; arba žalių rodyklių gretimoms žemėlapius.


METAR-TAF: